Time;durP1;ratioP1;P1;durP2;ratioP2;P2;SDS_P1;SDS_P2;PMS_P1;PMS_P2;Temp;Humidity;BMP_temperature;BMP_pressure;BME280_temperature;BME280_humidity;BME280_pressure;Samples;Min_cycle;Max_cycle;Signal;HPM_P1;HPM_P2
2022/11/10 00:00:02;;;;;;;1999.90;999.90;;;;;;;12.65;100.00;98177.13;5094442;28;20785;-73
2022/11/10 00:02:28;;;;;;;1999.90;999.90;;;;;;;12.65;100.00;98179.84;5076388;28;20032;-74
2022/11/10 00:04:53;;;;;;;1999.90;999.90;;;;;;;12.65;100.00;98179.84;5094724;28;20024;-74
2022/11/10 00:07:23;;;;;;;1999.90;999.90;;;;;;;12.62;100.00;98165.94;5094509;28;20040;-73
2022/11/10 00:09:51;;;;;;;1999.90;999.90;;;;;;;12.59;100.00;98169.28;5098020;28;20027;-73
2022/11/10 00:12:16;;;;;;;1999.90;999.90;;;;;;;12.62;100.00;98169.50;5105224;28;20027;-74
2022/11/10 00:17:25;;;;;;;1999.90;999.90;;;;;;;12.63;100.00;98173.03;5094585;28;20451;-73
2022/11/10 00:19:50;;;;;;;1999.90;999.90;;;;;;;12.62;100.00;98177.72;5094893;28;20032;-75
2022/11/10 00:22:16;;;;;;;1999.90;999.90;;;;;;;12.62;100.00;98172.25;5094693;28;20062;-74
2022/11/10 00:24:43;;;;;;;1999.90;999.90;;;;;;;12.65;100.00;98168.06;5095261;28;20027;-74
2022/11/10 00:27:09;;;;;;;1999.90;999.90;;;;;;;12.57;100.00;98177.81;5094121;28;20035;-74
2022/11/10 00:29:34;;;;;;;1999.90;999.90;;;;;;;12.57;100.00;98187.97;5095348;28;20032;-74
2022/11/10 00:32:00;;;;;;;1999.90;999.90;;;;;;;12.54;100.00;98191.31;5094711;28;20028;-74
2022/11/10 00:34:25;;;;;;;1999.90;999.90;;;;;;;12.59;100.00;98192.03;5094109;28;20020;-74
2022/11/10 00:36:50;;;;;;;1999.90;999.90;;;;;;;12.54;100.00;98189.38;5093967;28;20058;-74
2022/11/10 00:39:16;;;;;;;1999.90;999.90;;;;;;;12.59;100.00;98196.72;5094390;28;20074;-74
2022/11/10 00:41:41;;;;;;;1999.90;999.90;;;;;;;12.61;100.00;98203.53;5093640;28;20473;-73
2022/11/10 00:44:07;;;;;;;1999.90;999.90;;;;;;;12.60;100.00;98201.06;5093923;28;20473;-74
2022/11/10 00:46:32;;;;;;;1999.90;999.90;;;;;;;12.58;100.00;98200.56;5094675;28;20023;-76
2022/11/10 00:48:57;;;;;;;1999.90;999.90;;;;;;;12.55;100.00;98196.50;5094991;28;20081;-75
2022/11/10 00:51:25;;;;;;;1999.90;999.90;;;;;;;12.56;100.00;98192.63;5092377;28;20062;-75
2022/11/10 00:53:51;;;;;;;1999.90;999.90;;;;;;;12.51;100.00;98189.97;5093415;28;20650;-75
2022/11/10 00:56:17;;;;;;;1999.90;999.90;;;;;;;12.58;100.00;98197.81;5093062;28;20035;-75
2022/11/10 00:58:43;;;;;;;1999.90;999.90;;;;;;;12.59;100.00;98203.00;5093300;28;20032;-75
2022/11/10 01:01:09;;;;;;;1999.90;999.90;;;;;;;12.55;100.00;98201.19;5092879;28;20034;-74
2022/11/10 01:03:35;;;;;;;1999.90;999.90;;;;;;;12.56;100.00;98202.81;5075244;28;20031;-75
2022/11/10 01:06:13;;;;;;;1999.90;999.90;;;;;;;12.55;100.00;98210.22;5093058;28;20024;-75
2022/11/10 01:08:39;;;;;;;1999.90;999.90;;;;;;;12.58;100.00;98204.13;5093039;28;20071;-74
2022/11/10 01:11:07;;;;;;;1999.90;999.90;;;;;;;12.56;100.00;98205.56;5093462;28;20032;-76
2022/11/10 01:13:33;;;;;;;1999.90;999.90;;;;;;;12.56;100.00;98209.09;5093522;28;20060;-75
2022/11/10 01:16:06;;;;;;;1999.90;999.90;;;;;;;12.50;100.00;98204.81;5092951;28;20060;-75
2022/11/10 01:18:33;;;;;;;1999.90;999.90;;;;;;;12.55;100.00;98212.16;5092799;28;20416;-75
2022/11/10 01:20:58;;;;;;;1999.90;999.90;;;;;;;12.49;100.00;98214.19;5093040;28;20058;-75
2022/11/10 01:23:23;;;;;;;1999.90;999.90;;;;;;;12.56;100.00;98208.31;5093103;28;20036;-74
2022/11/10 01:25:49;;;;;;;1999.90;999.90;;;;;;;12.54;100.00;98210.50;5093069;28;20059;-75
2022/11/10 01:28:14;;;;;;;1999.90;999.90;;;;;;;12.55;100.00;98204.75;5092967;28;20044;-74
2022/11/10 01:30:40;;;;;;;1999.90;999.90;;;;;;;12.61;100.00;98211.75;5092954;28;20032;-74
2022/11/10 01:33:05;;;;;;;1999.90;999.90;;;;;;;12.57;100.00;98209.91;5093381;28;20115;-74
2022/11/10 01:35:32;;;;;;;1999.90;999.90;;;;;;;12.56;100.00;98213.78;5092984;28;20051;-75
2022/11/10 01:37:57;;;;;;;1999.90;999.90;;;;;;;12.57;100.00;98207.97;5074430;28;20028;-74
2022/11/10 01:40:23;;;;;;;1999.90;999.90;;;;;;;12.54;100.00;98219.56;5092906;28;20024;-74
2022/11/10 01:42:52;;;;;;;1999.90;999.90;;;;;;;12.53;100.00;98215.19;5092769;28;20091;-74
2022/11/10 01:45:40;;;;;;;1999.90;999.90;;;;;;;12.63;100.00;98217.75;5092868;28;20024;-75
2022/11/10 01:48:07;;;;;;;1999.90;999.90;;;;;;;12.61;100.00;98216.44;5092881;28;20024;-75
2022/11/10 01:50:38;;;;;;;1999.90;999.90;;;;;;;12.61;100.00;98210.94;5093522;28;20028;-75
2022/11/10 01:53:08;;;;;;;1999.90;999.90;;;;;;;12.65;100.00;98211.97;5081607;28;20032;-75
2022/11/10 01:55:38;;;;;;;1999.90;999.90;;;;;;;12.57;100.00;98204.41;5099034;28;20035;-74
2022/11/10 01:58:04;;;;;;;1999.90;999.90;;;;;;;12.63;100.00;98215.00;5096464;28;20024;-75
2022/11/10 02:00:29;;;;;;;1999.90;999.90;;;;;;;12.57;100.00;98207.16;5094319;28;20020;-76
2022/11/10 02:03:02;;;;;;;1999.90;999.90;;;;;;;12.59;100.00;98218.69;5095027;28;20024;-75
2022/11/10 02:05:28;;;;;;;1999.90;999.90;;;;;;;12.57;100.00;98210.72;5096316;28;20035;-75
2022/11/10 02:07:55;;;;;;;1999.90;999.90;;;;;;;12.56;100.00;98214.56;5093300;28;20040;-74
2022/11/10 02:10:21;;;;;;;1999.90;999.90;;;;;;;12.49;100.00;98216.91;5092178;28;20039;-75
2022/11/10 02:12:48;;;;;;;1999.90;999.90;;;;;;;12.54;100.00;98214.06;5092260;28;20027;-74
2022/11/10 02:15:16;;;;;;;1999.90;999.90;;;;;;;12.58;100.00;98217.84;5091879;28;20391;-74
2022/11/10 02:17:43;;;;;;;1999.90;999.90;;;;;;;12.50;100.00;98215.78;5073706;28;20035;-75
2022/11/10 02:20:11;;;;;;;1999.90;999.90;;;;;;;12.49;100.00;98214.19;5091404;28;20509;-75
2022/11/10 02:22:37;;;;;;;1999.90;999.90;;;;;;;12.50;100.00;98213.03;5099975;28;20503;-75
2022/11/10 02:25:03;;;;;;;1999.90;999.90;;;;;;;12.47;100.00;98216.38;5111719;28;20114;-75
2022/11/10 02:27:29;;;;;;;1999.90;999.90;;;;;;;12.46;100.00;98214.78;5111613;28;20035;-75
2022/11/10 02:29:55;;;;;;;1999.90;999.90;;;;;;;12.45;100.00;98213.16;5111734;28;20020;-75
2022/11/10 02:32:20;;;;;;;1999.90;999.90;;;;;;;12.47;100.00;98210.91;5112150;28;20020;-75
2022/11/10 02:34:45;;;;;;;1999.90;999.90;;;;;;;12.53;100.00;98204.22;5111575;28;20476;-75
2022/11/10 02:37:11;;;;;;;1999.90;999.90;;;;;;;12.53;100.00;98211.66;5111534;28;20103;-75
2022/11/10 02:39:36;;;;;;;1999.90;999.90;;;;;;;12.52;100.00;98208.09;5111582;28;20380;-74
2022/11/10 02:42:03;;;;;;;1999.90;999.90;;;;;;;12.53;100.00;98211.66;5111559;28;20073;-74
2022/11/10 02:44:28;;;;;;;1999.90;999.90;;;;;;;12.48;100.00;98212.53;5111643;28;20110;-75
2022/11/10 02:46:53;;;;;;;1999.90;999.90;;;;;;;12.49;100.00;98216.91;5111927;28;20118;-75
2022/11/10 02:49:19;;;;;;;1999.90;999.90;;;;;;;12.48;100.00;98212.53;5111529;28;20027;-75
2022/11/10 02:51:44;;;;;;;1999.90;999.90;;;;;;;12.47;100.00;98221.09;5111533;28;20102;-75
2022/11/10 02:54:09;;;;;;;1999.90;999.90;;;;;;;12.48;100.00;98223.50;5111278;28;20023;-74
2022/11/10 02:56:35;;;;;;;1999.90;999.90;;;;;;;12.50;100.00;98223.22;5111336;28;20024;-75
2022/11/10 02:59:00;;;;;;;1999.90;999.90;;;;;;;12.53;100.00;98231.66;5111343;28;20076;-74
2022/11/10 03:01:26;;;;;;;1999.90;999.90;;;;;;;12.47;100.00;98237.56;5111434;28;20015;-74
2022/11/10 03:03:51;;;;;;;1999.90;999.90;;;;;;;12.45;100.00;98234.28;5111556;28;20023;-73
2022/11/10 03:06:17;;;;;;;1999.90;999.90;;;;;;;12.44;100.00;98233.44;5110969;28;20835;-73
2022/11/10 03:08:42;;;;;;;1999.90;999.90;;;;;;;12.41;100.00;98236.81;5111289;28;20031;-75
2022/11/10 03:11:08;;;;;;;1999.90;999.90;;;;;;;12.47;100.00;98238.34;5110995;28;20035;-74
2022/11/10 03:13:33;;;;;;;1999.90;999.90;;;;;;;12.51;100.00;98244.88;5110850;28;20020;-75
2022/11/10 03:15:59;;;;;;;1999.90;999.90;;;;;;;12.54;100.00;98241.50;5110830;28;20383;-74
2022/11/10 03:18:24;;;;;;;1999.90;999.90;;;;;;;12.45;100.00;98240.59;5111338;28;20076;-75
2022/11/10 03:20:49;;;;;;;1999.90;999.90;;;;;;;12.49;100.00;98247.09;5111867;28;20095;-75
2022/11/10 03:23:18;;;;;;;1999.90;999.90;;;;;;;12.40;100.00;98257.13;5112108;28;20024;-76
2022/11/10 03:25:44;;;;;;;1999.90;999.90;;;;;;;12.42;100.00;98252.16;5112438;28;20430;-75
2022/11/10 03:28:10;;;;;;;1999.90;999.90;;;;;;;12.45;100.00;98261.72;5092989;28;20035;-74
2022/11/10 03:30:36;;;;;;;1999.90;999.90;;;;;;;12.44;100.00;98260.06;5110810;28;20024;-74
2022/11/10 03:33:02;;;;;;;1999.90;999.90;;;;;;;12.49;100.00;98262.75;5104838;28;20032;-75
2022/11/10 03:35:27;;;;;;;1999.90;999.90;;;;;;;12.54;100.00;98260.72;5090408;28;20813;-74
2022/11/10 03:37:53;;;;;;;1999.90;999.90;;;;;;;12.51;100.00;98264.06;5090454;28;20105;-74
2022/11/10 03:40:19;;;;;;;1999.90;999.90;;;;;;;12.47;100.00;98267.72;5090592;28;20377;-74
2022/11/10 03:42:45;;;;;;;1999.90;999.90;;;;;;;12.48;100.00;98266.59;5090344;28;20473;-74
2022/11/10 03:45:12;;;;;;;1999.90;999.90;;;;;;;12.49;100.00;98273.72;5090526;28;20053;-74
2022/11/10 03:47:38;;;;;;;1999.90;999.90;;;;;;;12.50;100.00;98269.88;5090457;28;20529;-74
2022/11/10 03:50:05;;;;;;;1999.90;999.90;;;;;;;12.50;100.00;98275.38;5090487;28;20028;-75
2022/11/10 03:52:30;;;;;;;1999.90;999.90;;;;;;;12.50;100.00;98276.16;5090678;28;20020;-75
2022/11/10 03:54:55;;;;;;;1999.90;999.90;;;;;;;12.50;100.00;98275.38;5090450;28;20500;-74
2022/11/10 03:57:21;;;;;;;1999.90;999.90;;;;;;;12.48;100.00;98277.56;5093463;28;20024;-74
2022/11/10 03:59:46;;;;;;;1999.90;999.90;;;;;;;12.48;100.00;98277.56;5102747;28;20472;-74
2022/11/10 04:02:11;;;;;;;1999.90;999.90;;;;;;;12.53;100.00;98275.56;5110633;28;20032;-75
2022/11/10 04:10:05;;;;;;;1999.90;999.90;;;;;;;12.50;100.00;98270.66;5110288;28;20031;-75
2022/11/10 04:18:19;;;;;;;1999.90;999.90;;;;;;;12.60;100.00;98273.25;5115508;28;20438;-75
2022/11/10 04:20:44;;;;;;;1999.90;999.90;;;;;;;12.56;100.00;98277.69;5110977;28;20073;-75
2022/11/10 04:23:27;;;;;;;1999.90;999.90;;;;;;;12.56;100.00;98265.94;5111150;28;20028;-74
2022/11/10 04:26:29;;;;;;;1999.90;999.90;;;;;;;12.48;100.00;98266.59;5110972;28;20028;-75
2022/11/10 04:28:57;;;;;;;1999.90;999.90;;;;;;;12.51;100.00;98277.78;5113976;28;20391;-75
2022/11/10 04:31:24;;;;;;;1999.90;999.90;;;;;;;12.49;100.00;98281.94;5114073;28;20529;-76
2022/11/10 04:33:50;;;;;;;1999.90;999.90;;;;;;;12.45;100.00;98286.41;5114837;28;20118;-75
2022/11/10 04:36:21;;;;;;;1999.90;999.90;;;;;;;12.48;100.00;98294.03;5113921;28;20139;-74
2022/11/10 04:38:47;;;;;;;1999.90;999.90;;;;;;;12.51;100.00;98293.44;5113986;28;20024;-75
2022/11/10 04:41:13;;;;;;;1999.90;999.90;;;;;;;12.50;100.00;98294.56;5113884;28;20042;-75
2022/11/10 04:43:39;;;;;;;1999.90;999.90;;;;;;;12.55;100.00;98303.53;5113769;28;20027;-75
2022/11/10 04:46:06;;;;;;;1999.90;999.90;;;;;;;12.57;100.00;98295.78;5113700;28;20546;-75
2022/11/10 04:48:33;;;;;;;1999.90;999.90;;;;;;;12.54;100.00;98301.88;5113640;28;20034;-75
2022/11/10 04:51:04;;;;;;;1999.90;999.90;;;;;;;12.56;100.00;98302.38;5113582;28;20365;-76
2022/11/10 04:53:30;;;;;;;1999.90;999.90;;;;;;;12.59;100.00;98311.97;5113523;28;20028;-77
2022/11/10 04:55:55;;;;;;;1999.90;999.90;;;;;;;12.61;100.00;98318.78;5113114;28;20081;-74
2022/11/10 04:58:21;;;;;;;1999.90;999.90;;;;;;;12.63;100.00;98319.28;5112863;28;20050;-76
2022/11/10 05:00:46;;;;;;;1999.90;999.90;;;;;;;12.70;100.00;98314.25;5112791;28;20015;-75
2022/11/10 05:03:12;;;;;;;1999.90;999.90;;;;;;;12.64;100.00;98320.94;5112961;28;20020;-74
2022/11/10 05:05:38;;;;;;;1999.90;999.90;;;;;;;12.66;100.00;98332.41;5113053;28;20027;-76
2022/11/10 05:08:04;;;;;;;1999.90;999.90;;;;;;;12.63;100.00;98337.69;5112197;28;20484;-76
2022/11/10 05:10:30;;;;;;;1999.90;999.90;;;;;;;12.62;100.00;98339.66;5112787;28;20036;-74
2022/11/10 05:12:56;;;;;;;1999.90;999.90;;;;;;;12.57;100.00;98345.19;5113028;28;20076;-75
2022/11/10 05:15:23;;;;;;;1999.90;999.90;;;;;;;12.60;100.00;98347.34;5112727;28;20028;-75
2022/11/10 05:17:50;;;;;;;1999.90;999.90;;;;;;;12.59;100.00;98347.66;5112998;28;20019;-75
2022/11/10 05:20:20;;;;;;;1999.90;999.90;;;;;;;12.55;100.00;98352.91;5113007;28;20110;-75
2022/11/10 05:23:36;;;;;;;1999.90;999.90;;;;;;;12.59;100.00;98355.88;5112770;28;20023;-75
2022/11/10 05:25:32;;;;;;;1999.90;999.90;;;;;;;12.57;100.00;98356.16;5112323;28;20020;-76
2022/11/10 05:27:58;;;;;;;1999.90;999.90;;;;;;;12.61;100.00;98351.72;5112720;28;20073;-74
2022/11/10 05:30:23;;;;;;;1999.90;999.90;;;;;;;12.58;100.00;98360.56;5113032;28;20032;-74
2022/11/10 05:32:49;;;;;;;1999.90;999.90;;;;;;;12.57;100.00;98364.41;5113229;28;20058;-76
2022/11/10 05:35:14;;;;;;;1999.90;999.90;;;;;;;12.64;100.00;98366.78;5113112;28;20498;-75
2022/11/10 05:37:39;;;;;;;1999.90;999.90;;;;;;;12.63;100.00;98362.38;5112636;28;20053;-74
2022/11/10 05:40:06;;;;;;;1999.90;999.90;;;;;;;12.66;100.00;98361.78;5106738;28;20383;-76
2022/11/10 05:42:31;;;;;;;1999.90;999.90;;;;;;;12.70;100.00;98362.84;5092414;28;20060;-75
2022/11/10 05:44:56;;;;;;;1999.90;999.90;;;;;;;12.68;100.00;98371.38;5074273;28;20063;-76
2022/11/10 05:47:22;;;;;;;1999.90;999.90;;;;;;;12.58;100.00;98370.72;5092254;28;20032;-75
2022/11/10 05:49:47;;;;;;;1999.90;999.90;;;;;;;12.59;100.00;98378.63;5092279;28;20016;-75
2022/11/10 05:52:12;;;;;;;1999.90;999.90;;;;;;;12.61;100.00;98384.66;5092044;28;20032;-74
2022/11/10 05:54:38;;;;;;;1999.90;999.90;;;;;;;12.53;100.00;98385.31;5092025;28;20032;-75
2022/11/10 05:57:03;;;;;;;1999.90;999.90;;;;;;;12.45;100.00;98394.22;5092256;28;20491;-74
2022/11/10 05:59:28;;;;;;;1999.90;999.90;;;;;;;12.41;100.00;98395.91;5092229;28;20063;-74
2022/11/10 06:01:54;;;;;;;1999.90;999.90;;;;;;;12.43;100.00;98393.72;5102703;28;20392;-75
2022/11/10 06:04:22;;;;;;;1999.90;999.90;;;;;;;12.41;100.00;98398.66;5092738;28;20024;-77
2022/11/10 06:06:47;;;;;;;1999.90;999.90;;;;;;;12.39;100.00;98397.34;5102009;28;20608;-75
2022/11/10 06:09:13;;;;;;;1999.90;999.90;;;;;;;12.38;100.00;98398.44;5112054;28;20028;-76
2022/11/10 06:11:38;;;;;;;1999.90;999.90;;;;;;;12.32;100.00;98409.50;5112185;28;20024;-75
2022/11/10 06:14:03;;;;;;;1999.90;999.90;;;;;;;12.33;100.00;98407.56;5111429;28;20118;-76
2022/11/10 06:16:29;;;;;;;1999.90;999.90;;;;;;;12.34;100.00;98420.97;5105581;28;20370;-74
2022/11/10 06:18:54;;;;;;;1999.90;999.90;;;;;;;12.36;100.00;98417.94;5101627;28;20484;-76
2022/11/10 06:21:20;;;;;;;1999.90;999.90;;;;;;;12.34;100.00;98426.47;5100621;28;20115;-75
2022/11/10 06:23:45;;;;;;;1999.90;999.90;;;;;;;12.38;100.00;98432.19;5104158;28;20028;-76
2022/11/10 06:26:10;;;;;;;1999.90;999.90;;;;;;;12.37;100.00;98438.81;5110014;28;20138;-79
2022/11/10 06:28:38;;;;;;;1999.90;999.90;;;;;;;12.38;100.00;98437.66;5110644;28;20028;-75
2022/11/10 06:31:04;;;;;;;1999.90;999.90;;;;;;;12.33;100.00;98451.47;5106926;28;20381;-75
2022/11/10 06:33:29;;;;;;;1999.90;999.90;;;;;;;12.41;100.00;98463.69;5087769;28;20024;-76
2022/11/10 06:35:55;;;;;;;1999.90;999.90;;;;;;;12.41;100.00;98464.50;5101098;28;20039;-75
2022/11/10 06:38:20;;;;;;;1999.90;999.90;;;;;;;12.46;100.00;98469.94;5075398;28;20101;-76
2022/11/10 06:40:45;;;;;;;1999.90;999.90;;;;;;;12.49;100.00;98472.09;5093968;28;20094;-77
2022/11/10 06:43:11;;;;;;;1999.90;999.90;;;;;;;12.39;100.00;98472.22;5074964;28;20109;-75
2022/11/10 06:45:36;;;;;;;1999.90;999.90;;;;;;;12.41;100.00;98485.63;5095999;28;20028;-73
2022/11/10 06:48:05;;;;;;;1999.90;999.90;;;;;;;12.36;100.00;98492.03;5094545;28;20109;-75
2022/11/10 06:50:30;;;;;;;1999.90;999.90;;;;;;;12.37;100.00;98496.41;5111070;28;20023;-75
2022/11/10 06:52:57;;;;;;;1999.90;999.90;;;;;;;12.43;100.00;98506.22;5110797;28;20034;-75
2022/11/10 06:55:23;;;;;;;1999.90;999.90;;;;;;;12.42;100.00;98510.06;5110903;28;20337;-74
2022/11/10 06:57:49;;;;;;;1999.90;999.90;;;;;;;12.44;100.00;98507.00;5118855;28;20032;-85
2022/11/10 07:00:15;;;;;;;1999.90;999.90;;;;;;;12.43;100.00;98525.41;5125272;28;20073;-88
2022/11/10 07:02:40;;;;;;;1999.90;999.90;;;;;;;12.43;100.00;98525.41;5106778;28;20116;-85
2022/11/10 07:05:06;;;;;;;1999.90;999.90;;;;;;;12.44;100.00;98524.28;5103992;28;20032;-82
2022/11/10 07:07:34;;;;;;;1999.90;999.90;;;;;;;12.41;100.00;98538.59;5105802;28;20048;-84
2022/11/10 07:09:59;;;;;;;1999.90;999.90;;;;;;;12.43;100.00;98541.88;5102745;28;20084;-82
2022/11/10 07:12:25;;;;;;;1999.90;999.90;;;;;;;12.48;100.00;98549.22;5102145;28;20425;-87
2022/11/10 07:14:50;;;;;;;1999.90;999.90;;;;;;;12.46;100.00;98544.03;5100202;28;20043;-83
2022/11/10 07:17:16;;;;;;;1999.90;999.90;;;;;;;12.50;100.00;98560.72;5099066;28;20043;-83
2022/11/10 07:19:41;;;;;;;1999.90;999.90;;;;;;;12.48;100.00;98565.69;5099150;28;20028;-82
2022/11/10 07:22:07;;;;;;;1999.90;999.90;;;;;;;12.45;100.00;98564.34;5097244;28;20030;-85
2022/11/10 07:24:32;;;;;;;1999.90;999.90;;;;;;;12.51;100.00;98568.66;5095600;28;20016;-82
2022/11/10 07:26:58;;;;;;;1999.90;999.90;;;;;;;12.53;100.00;98580.16;5095216;28;20495;-83
2022/11/10 07:29:24;;;;;;;1999.90;999.90;;;;;;;12.53;100.00;98585.63;5091287;28;20020;-81
2022/11/10 07:31:50;;;;;;;1999.90;999.90;;;;;;;12.58;100.00;98585.59;5091692;28;20032;-79
2022/11/10 07:34:15;;;;;;;1999.90;999.90;;;;;;;12.54;100.00;98595.50;5093745;28;20427;-81
2022/11/10 07:36:42;;;;;;;1999.90;999.90;;;;;;;12.52;100.00;98599.66;5078574;28;20028;-81
2022/11/10 07:39:07;;;;;;;1999.90;999.90;;;;;;;12.53;100.00;98604.84;5091575;28;20028;-81
2022/11/10 07:41:33;;;;;;;1999.90;999.90;;;;;;;12.51;100.00;98601.59;5090434;28;20082;-75
2022/11/10 07:43:58;;;;;;;1999.90;999.90;;;;;;;12.39;100.00;98614.91;5089644;28;20472;-76
2022/11/10 07:46:23;;;;;;;1999.90;999.90;;;;;;;12.45;100.00;98618.41;5089374;28;20053;-76
2022/11/10 07:48:49;;;;;;;1999.90;999.90;;;;;;;12.40;100.00;98633.00;5089612;28;20112;-76
2022/11/10 07:51:14;;;;;;;1999.90;999.90;;;;;;;12.31;100.00;98629.22;5089281;28;20546;-73
2022/11/10 07:53:40;;;;;;;1999.90;999.90;;;;;;;12.28;100.00;98635.28;5089873;28;20035;-75
2022/11/10 07:56:06;;;;;;;1999.90;999.90;;;;;;;12.25;100.00;98635.88;5071471;28;20028;-75
2022/11/10 07:58:33;;;;;;;1999.90;999.90;;;;;;;12.09;100.00;98632.47;5082004;28;20396;-75
2022/11/10 08:01:35;;;;;;;1999.90;999.90;;;;;;;12.25;100.00;98647.66;5086058;28;20107;-75
2022/11/10 08:04:03;;;;;;;1999.90;999.90;;;;;;;12.18;100.00;98643.66;5115106;28;20047;-76
2022/11/10 08:06:35;;;;;;;1999.90;999.90;;;;;;;12.12;100.00;98642.06;5085295;28;20621;-76
2022/11/10 08:09:01;;;;;;;1999.90;999.90;;;;;;;12.12;100.00;98650.28;5081990;28;20028;-75
2022/11/10 08:11:29;;;;;;;1999.90;999.90;;;;;;;12.05;100.00;98658.00;5103318;28;20030;-75
2022/11/10 08:13:54;;;;;;;1999.90;999.90;;;;;;;12.03;100.00;98661.03;5103287;28;20057;-75
2022/11/10 08:16:23;;;;;;;1999.90;999.90;;;;;;;11.97;100.00;98658.63;5099191;28;20107;-76
2022/11/10 08:18:52;;;;;;;1999.90;999.90;;;;;;;11.99;100.00;98654.50;5105517;28;20028;-77
2022/11/10 08:21:17;;;;;;;1999.90;999.90;;;;;;;12.01;100.00;98659.69;5101671;28;20513;-77
2022/11/10 08:23:43;;;;;;;1999.90;999.90;;;;;;;12.02;100.00;98664.06;5102749;28;20055;-76
2022/11/10 08:26:08;;;;;;;1999.90;999.90;;;;;;;12.10;100.00;98666.19;5103963;28;20495;-77
2022/11/10 08:28:33;;;;;;;1999.90;999.90;;;;;;;12.12;100.00;98674.97;5104937;28;20035;-74
2022/11/10 08:31:02;;;;;;;1999.90;999.90;;;;;;;12.15;100.00;98674.38;5120576;28;20019;-86
2022/11/10 08:33:27;;;;;;;1999.90;999.90;;;;;;;12.16;100.00;98681.50;5120058;28;20038;-86
2022/11/10 08:35:52;;;;;;;1999.90;999.90;;;;;;;12.19;100.00;98697.38;5125557;28;20039;-84
2022/11/10 08:38:20;;;;;;;1999.90;999.90;;;;;;;12.13;100.00;98693.03;5096979;28;20048;-85
2022/11/10 08:40:51;;;;;;;1999.90;999.90;;;;;;;12.20;100.00;98704.50;5114568;28;20041;-84
2022/11/10 08:43:17;;;;;;;1999.90;999.90;;;;;;;12.13;100.00;98712.22;5124238;28;20032;-86
2022/11/10 08:45:44;;;;;;;1999.90;999.90;;;;;;;12.15;100.00;98723.75;5131164;28;20027;-81
2022/11/10 08:48:17;;;;;;;1999.90;999.90;;;;;;;12.16;100.00;98726.19;5116893;28;20439;-84
2022/11/10 08:50:43;;;;;;;1999.90;999.90;;;;;;;12.24;100.00;98733.00;5116744;28;20099;-84
2022/11/10 08:53:12;;;;;;;1999.90;999.90;;;;;;;12.34;100.00;98739.22;5125439;28;20044;-85
2022/11/10 08:55:38;;;;;;;1999.90;999.90;;;;;;;12.42;100.00;98745.19;5109365;28;20032;-86
2022/11/10 08:58:05;;;;;;;1999.90;999.90;;;;;;;12.49;100.00;98741.03;5128241;28;20054;-84
2022/11/10 09:00:31;;;;;;;1999.90;999.90;;;;;;;12.53;100.00;98755.78;5124575;28;20024;-84
2022/11/10 09:03:30;;;;;;;1999.90;999.90;;;;;;;12.65;100.00;98755.41;5107563;28;20020;-75
2022/11/10 09:05:56;;;;;;;1999.90;999.90;;;;;;;12.74;100.00;98770.97;5083038;28;20114;-74
2022/11/10 09:08:21;;;;;;;1999.90;999.90;;;;;;;12.78;100.00;98774.75;5102441;28;20031;-75
2022/11/10 09:10:49;;;;;;;1999.90;999.90;;;;;;;12.90;100.00;98774.38;5102433;28;20038;-75
2022/11/10 09:13:16;;;;;;;1999.90;999.90;;;;;;;12.88;100.00;98782.91;5099630;28;20035;-75
2022/11/10 09:15:43;;;;;;;1999.90;999.90;;;;;;;12.96;100.00;98791.63;5112245;28;20039;-75
2022/11/10 09:18:11;;;;;;;1999.90;999.90;;;;;;;12.97;100.00;98794.06;5103957;28;20483;-75
2022/11/10 09:20:37;;;;;;;1999.90;999.90;;;;;;;12.99;100.00;98796.53;5100246;28;20043;-74
2022/11/10 09:23:04;;;;;;;1999.90;999.90;;;;;;;13.00;100.00;98798.19;5106403;28;20066;-75
2022/11/10 09:25:30;;;;;;;1999.90;999.90;;;;;;;13.04;100.00;98796.47;5103598;28;20077;-76
2022/11/10 09:27:55;;;;;;;1999.90;999.90;;;;;;;12.99;100.00;98805.59;5104795;28;20016;-76
2022/11/10 09:30:21;;;;;;;1999.90;999.90;;;;;;;12.98;100.00;98805.88;5102473;28;20133;-74
2022/11/10 09:32:53;;;;;;;1999.90;999.90;;;;;;;13.03;100.00;98822.31;5105066;28;20160;-76
2022/11/10 09:35:18;;;;;;;1999.90;999.90;;;;;;;13.00;100.00;98822.91;5097888;28;20540;-75
2022/11/10 09:37:43;;;;;;;1999.90;999.90;;;;;;;13.06;100.00;98829.97;5099290;28;20111;-77
2022/11/10 09:40:23;;;;;;;1999.90;999.90;;;;;;;13.15;100.00;98836.50;5097366;28;21430;-76
2022/11/10 09:42:53;;;;;;;1999.90;999.90;;;;;;;13.06;100.00;98838.22;5099437;28;20422;-75
2022/11/10 09:45:18;;;;;;;1999.90;999.90;;;;;;;13.06;100.00;98841.75;5099550;28;20016;-76
2022/11/10 09:47:59;;;;;;;1999.90;999.90;;;;;;;13.09;100.00;98843.16;5099863;28;20032;-76
2022/11/10 09:50:40;;;;;;;1999.90;999.90;;;;;;;13.15;100.00;98844.75;5100929;28;20416;-75
2022/11/10 09:53:13;;;;;;;1999.90;999.90;;;;;;;13.18;100.00;98852.41;5102413;28;20046;-77
2022/11/10 09:55:48;;;;;;;1999.90;999.90;;;;;;;13.21;100.00;98852.66;5102813;28;20023;-76
2022/11/10 09:58:14;;;;;;;1999.90;999.90;;;;;;;13.22;100.00;98856.19;5104758;28;20495;-75
2022/11/10 10:00:45;;;;;;;1999.90;999.90;;;;;;;13.27;100.00;98859.75;5099758;28;20024;-74
2022/11/10 10:03:18;;;;;;;1999.90;999.90;;;;;;;13.27;100.00;98864.41;5098550;28;20418;-75
2022/11/10 10:05:52;;;;;;;1999.90;999.90;;;;;;;13.27;100.00;98872.66;5103554;28;20039;-76
2022/11/10 10:08:36;;;;;;;1999.90;999.90;;;;;;;13.28;100.00;98877.06;5098664;28;20396;-75
2022/11/10 10:11:19;;;;;;;1999.90;999.90;;;;;;;13.31;100.00;98879.22;5099753;28;20035;-76
2022/11/10 10:13:59;;;;;;;1999.90;999.90;;;;;;;13.37;100.00;98884.34;5100155;28;20030;-76
2022/11/10 10:16:39;;;;;;;1999.90;999.90;;;;;;;13.30;100.00;98883.06;5102355;28;20069;-79
2022/11/10 10:19:19;;;;;;;1999.90;999.90;;;;;;;13.23;100.00;98883.41;5083409;28;20034;-76
2022/11/10 10:21:57;;;;;;;1999.90;999.90;;;;;;;13.31;100.00;98887.47;5099515;28;20027;-76
2022/11/10 10:24:26;;;;;;;1999.90;999.90;;;;;;;13.30;100.00;98892.13;5101382;28;20031;-76
2022/11/10 10:26:57;;;;;;;1999.90;999.90;;;;;;;13.33;100.00;98890.72;5104173;28;20388;-76
2022/11/10 10:29:28;;;;;;;1999.90;999.90;;;;;;;13.32;100.00;98897.31;5102999;28;20092;-75
2022/11/10 10:31:55;;;;;;;1999.90;999.90;;;;;;;13.24;100.00;98907.03;5101505;28;20611;-76
2022/11/10 10:34:30;;;;;;;1999.90;999.90;;;;;;;13.16;100.00;98904.06;5105027;28;20181;-76
2022/11/10 10:36:56;;;;;;;1999.90;999.90;;;;;;;13.15;100.00;98902.44;5103617;28;20030;-74
2022/11/10 10:39:36;;;;;;;1999.90;999.90;;;;;;;13.19;100.00;98914.47;5101241;28;20020;-75
2022/11/10 10:42:10;;;;;;;1999.90;999.90;;;;;;;13.18;100.00;98908.19;5102877;28;20031;-76
2022/11/10 10:44:35;;;;;;;1999.90;999.90;;;;;;;13.17;100.00;98914.78;5100216;28;20032;-75
2022/11/10 10:47:01;;;;;;;1999.90;999.90;;;;;;;13.15;100.00;98917.00;5099706;28;20034;-75
2022/11/10 10:49:28;;;;;;;1999.90;999.90;;;;;;;13.13;100.00;98926.63;5098865;28;20110;-76
2022/11/10 10:52:10;;;;;;;1999.90;999.90;;;;;;;13.08;100.00;98929.38;5109540;28;20028;-75
2022/11/10 10:54:37;;;;;;;1999.90;999.90;;;;;;;13.15;100.00;98936.25;5102060;28;20037;-75
2022/11/10 10:57:22;;;;;;;1999.90;999.90;;;;;;;13.15;100.00;98933.50;5098126;28;20477;-75
2022/11/10 10:59:48;;;;;;;1999.90;999.90;;;;;;;13.19;100.00;98940.03;5104556;28;20035;-75
2022/11/10 11:02:22;;;;;;;1999.90;999.90;;;;;;;13.18;100.00;98938.41;5103286;28;20055;-76